createdAt,value
2023-03-03T00:00:22.721Z,94.56
2023-03-03T00:02:50.580Z,94.64
2023-03-03T00:05:19.732Z,95.65
2023-03-03T00:07:47.500Z,94.24
2023-03-03T00:10:15.478Z,95.06
2023-03-03T00:12:50.291Z,95.43
2023-03-03T00:15:22.075Z,94.11
2023-03-03T00:17:50.176Z,93.48
2023-03-03T00:20:24.419Z,93.98
2023-03-03T00:22:52.605Z,94.19
2023-03-03T00:25:20.819Z,93.31
2023-03-03T00:27:48.683Z,93.34
2023-03-03T00:30:24.765Z,93.29
2023-03-03T00:32:54.169Z,94.37
2023-03-03T00:35:31.533Z,94.51
2023-03-03T00:38:01.303Z,95.32
2023-03-03T00:40:39.516Z,94.60
2023-03-03T00:43:29.140Z,95.56
2023-03-03T00:45:57.343Z,94.75
2023-03-03T00:48:32.404Z,95.91
2023-03-03T00:51:01.268Z,95.38
2023-03-03T00:53:30.780Z,95.17
2023-03-03T00:55:58.879Z,95.44
2023-03-03T00:58:26.762Z,95.69
2023-03-03T01:00:55.275Z,95.66
2023-03-03T01:03:24.745Z,95.40
2023-03-03T01:05:53.020Z,95.54
2023-03-03T01:08:20.832Z,94.80
2023-03-03T01:10:53.073Z,95.17
2023-03-03T01:13:25.537Z,95.62
2023-03-03T01:15:53.399Z,94.58
2023-03-03T01:18:21.225Z,94.74
2023-03-03T01:20:48.931Z,95.46
2023-03-03T01:23:16.760Z,96.14
2023-03-03T01:25:44.573Z,95.15
2023-03-03T01:28:12.538Z,95.68
2023-03-03T01:30:40.344Z,95.71
2023-03-03T01:33:08.152Z,95.67
2023-03-03T01:35:37.625Z,96.39
2023-03-03T01:38:05.493Z,97.05
2023-03-03T01:40:33.405Z,97.00
2023-03-03T01:43:02.359Z,97.61
2023-03-03T01:45:48.858Z,97.52
2023-03-03T01:48:22.699Z,97.94
2023-03-03T01:50:52.975Z,97.98
2023-03-03T01:53:23.376Z,97.49
2023-03-03T01:55:52.061Z,97.53
2023-03-03T01:58:22.848Z,97.55
2023-03-03T02:00:56.558Z,97.66
2023-03-03T02:03:24.434Z,97.92
2023-03-03T02:05:53.581Z,97.56
2023-03-03T02:08:23.060Z,97.54
2023-03-03T02:10:50.763Z,97.42
2023-03-03T02:13:18.561Z,97.33
2023-03-03T02:15:46.412Z,97.79
2023-03-03T02:18:15.487Z,97.97
2023-03-03T02:20:55.567Z,97.85
2023-03-03T02:23:45.116Z,97.88
2023-03-03T02:26:20.577Z,97.24
2023-03-03T02:28:48.365Z,97.89
2023-03-03T02:31:18.394Z,97.87
2023-03-03T02:33:48.793Z,98.47
2023-03-03T02:36:18.838Z,98.40
2023-03-03T02:38:52.525Z,98.14
2023-03-03T02:41:26.200Z,98.79
2023-03-03T02:44:08.321Z,98.48
2023-03-03T02:46:37.883Z,98.99
2023-03-03T02:49:06.116Z,99.04
2023-03-03T02:51:34.032Z,98.62
2023-03-03T02:54:01.985Z,99.27
2023-03-03T02:56:29.876Z,99.33
2023-03-03T02:58:57.630Z,98.27
2023-03-03T03:01:25.509Z,98.00
2023-03-03T03:03:53.553Z,98.03
2023-03-03T03:06:21.744Z,98.25
2023-03-03T03:08:49.528Z,98.80
2023-03-03T03:11:17.309Z,98.42
2023-03-03T03:13:46.093Z,98.42
2023-03-03T03:16:13.914Z,98.93
2023-03-03T03:18:41.737Z,98.21
2023-03-03T03:21:13.469Z,97.74
2023-03-03T03:23:41.420Z,98.27
2023-03-03T03:26:09.588Z,98.51
2023-03-03T03:28:37.505Z,98.89
2023-03-03T03:31:06.103Z,99.06
2023-03-03T03:33:33.953Z,98.63
2023-03-03T03:36:01.841Z,99.43
2023-03-03T03:38:30.872Z,99.19
2023-03-03T03:40:58.612Z,99.18
2023-03-03T03:43:26.694Z,99.43
2023-03-03T03:45:54.496Z,100.00
2023-03-03T03:48:22.563Z,100.00
2023-03-03T03:50:50.344Z,100.00
2023-03-03T03:53:18.785Z,100.00
2023-03-03T03:55:46.861Z,100.00
2023-03-03T03:58:15.821Z,100.00
2023-03-03T04:00:44.170Z,100.00
2023-03-03T04:03:12.381Z,100.00
2023-03-03T04:05:40.194Z,100.00
2023-03-03T04:08:08.124Z,100.00
2023-03-03T04:10:36.088Z,100.00
2023-03-03T04:13:03.857Z,100.00
2023-03-03T04:15:31.656Z,100.00
2023-03-03T04:17:59.460Z,100.00
2023-03-03T04:20:27.302Z,100.00
2023-03-03T04:22:55.112Z,100.00
2023-03-03T04:25:23.012Z,100.00
2023-03-03T04:27:51.247Z,100.00
2023-03-03T04:30:19.053Z,100.00
2023-03-03T04:32:46.845Z,100.00
2023-03-03T04:35:14.620Z,100.00
2023-03-03T04:37:42.407Z,100.00
2023-03-03T04:40:11.365Z,100.00
2023-03-03T04:42:39.440Z,100.00
2023-03-03T04:45:07.858Z,100.00
2023-03-03T04:47:35.579Z,100.00
2023-03-03T04:50:03.414Z,100.00
2023-03-03T04:52:31.159Z,100.00
2023-03-03T04:54:59.261Z,100.00
2023-03-03T04:57:27.110Z,100.00
2023-03-03T04:59:54.870Z,100.00
2023-03-03T05:02:22.609Z,100.00
2023-03-03T05:04:50.447Z,100.00
2023-03-03T05:07:20.417Z,100.00
2023-03-03T05:09:48.151Z,100.00
2023-03-03T05:12:15.946Z,100.00
2023-03-03T05:14:43.927Z,100.00
2023-03-03T05:17:11.663Z,100.00
2023-03-03T05:19:39.435Z,100.00
2023-03-03T05:22:07.196Z,100.00
2023-03-03T05:24:34.917Z,100.00
2023-03-03T05:27:02.931Z,100.00
2023-03-03T05:29:32.726Z,100.00
2023-03-03T05:32:00.498Z,100.00
2023-03-03T05:34:28.498Z,100.00
2023-03-03T05:36:56.286Z,100.00
2023-03-03T05:39:24.533Z,100.00
2023-03-03T05:41:52.390Z,100.00
2023-03-03T05:44:20.784Z,100.00
2023-03-03T05:46:48.646Z,100.00
2023-03-03T05:49:16.511Z,100.00
2023-03-03T05:51:44.244Z,100.00
2023-03-03T05:54:12.036Z,100.00
2023-03-03T05:56:39.822Z,100.00
2023-03-03T05:59:07.578Z,100.00
2023-03-03T06:01:35.410Z,100.00
2023-03-03T06:04:03.218Z,100.00
2023-03-03T06:06:31.218Z,100.00
2023-03-03T06:08:58.985Z,100.00
2023-03-03T06:11:26.797Z,100.00
2023-03-03T06:13:54.586Z,100.00
2023-03-03T06:16:22.525Z,100.00
2023-03-03T06:18:50.446Z,100.00
2023-03-03T06:21:18.298Z,100.00
2023-03-03T06:23:46.121Z,100.00
2023-03-03T06:26:14.020Z,100.00
2023-03-03T06:28:41.718Z,100.00
2023-03-03T06:31:09.442Z,100.00
2023-03-03T06:33:37.245Z,100.00
2023-03-03T06:36:05.921Z,100.00
2023-03-03T06:38:33.801Z,100.00
2023-03-03T06:41:03.309Z,100.00
2023-03-03T06:43:31.058Z,100.00
2023-03-03T06:45:59.005Z,100.00
2023-03-03T06:48:26.791Z,100.00
2023-03-03T06:50:54.601Z,100.00
2023-03-03T06:53:22.414Z,100.00
2023-03-03T06:55:50.418Z,100.00
2023-03-03T06:58:19.579Z,100.00
2023-03-03T07:01:00.056Z,100.00
2023-03-03T07:03:37.046Z,100.00
2023-03-03T07:06:10.548Z,100.00
2023-03-03T07:08:38.332Z,100.00
2023-03-03T07:11:10.297Z,100.00
2023-03-03T07:13:47.509Z,100.00
2023-03-03T07:16:16.251Z,100.00
2023-03-03T07:18:58.586Z,100.00
2023-03-03T07:21:37.473Z,100.00
2023-03-03T07:24:27.433Z,100.00
2023-03-03T07:27:32.652Z,100.00
2023-03-03T07:30:19.373Z,100.00
2023-03-03T07:32:48.020Z,100.00
2023-03-03T07:35:41.318Z,100.00
2023-03-03T07:38:24.994Z,100.00
2023-03-03T07:40:54.556Z,100.00
2023-03-03T07:43:31.340Z,99.96
2023-03-03T07:46:03.060Z,99.20
2023-03-03T07:48:38.366Z,100.00
2023-03-03T07:51:35.366Z,100.00
2023-03-03T07:54:29.584Z,100.00
2023-03-03T07:57:21.465Z,99.74
2023-03-03T07:59:49.917Z,99.84
2023-03-03T08:02:25.484Z,99.95
2023-03-03T08:04:53.771Z,99.90
2023-03-03T08:07:23.100Z,100.00
2023-03-03T08:09:52.184Z,99.68
2023-03-03T08:12:21.323Z,99.33
2023-03-03T08:14:49.213Z,99.65
2023-03-03T08:17:24.838Z,99.45
2023-03-03T08:19:52.698Z,99.78
2023-03-03T08:22:26.257Z,99.93
2023-03-03T08:24:54.140Z,99.51
2023-03-03T08:27:21.931Z,99.30
2023-03-03T08:29:51.200Z,99.41
2023-03-03T08:32:19.045Z,99.60
2023-03-03T08:34:46.931Z,99.63
2023-03-03T08:37:14.732Z,99.93
2023-03-03T08:39:42.495Z,100.00
2023-03-03T08:42:10.297Z,100.00
2023-03-03T08:44:38.188Z,100.00
2023-03-03T08:47:06.202Z,99.21
2023-03-03T08:49:33.971Z,99.57
2023-03-03T08:52:02.014Z,100.00
2023-03-03T08:54:29.855Z,99.97
2023-03-03T08:56:57.647Z,99.47
2023-03-03T08:59:25.494Z,99.71
2023-03-03T09:01:53.632Z,98.56
2023-03-03T09:04:21.490Z,98.61
2023-03-03T09:06:49.492Z,97.60
2023-03-03T09:09:17.336Z,96.81
2023-03-03T09:11:45.547Z,96.46
2023-03-03T09:14:15.253Z,97.09
2023-03-03T09:16:51.322Z,96.63
2023-03-03T09:19:36.217Z,96.23
2023-03-03T09:22:20.015Z,95.13
2023-03-03T09:24:48.204Z,93.97
2023-03-03T09:27:29.224Z,94.17
2023-03-03T09:30:36.023Z,94.25
2023-03-03T09:33:09.559Z,94.34
2023-03-03T09:35:39.103Z,93.92
2023-03-03T09:38:30.628Z,94.61
2023-03-03T09:41:22.245Z,92.35
2023-03-03T09:44:02.897Z,93.17
2023-03-03T09:46:30.726Z,90.72
2023-03-03T09:49:19.516Z,91.76
2023-03-03T09:51:59.501Z,91.80
2023-03-03T09:54:36.145Z,89.36
2023-03-03T09:57:05.321Z,88.77
2023-03-03T09:59:56.302Z,89.37
2023-03-03T10:02:37.079Z,88.99
2023-03-03T10:05:31.411Z,88.96
2023-03-03T10:08:10.896Z,87.53
2023-03-03T10:10:47.151Z,88.31
2023-03-03T10:13:23.780Z,88.23
2023-03-03T10:16:07.526Z,89.37
2023-03-03T10:19:04.622Z,88.08
2023-03-03T10:21:43.642Z,88.52
2023-03-03T10:24:31.901Z,87.89
2023-03-03T10:27:13.023Z,86.38
2023-03-03T10:30:09.725Z,86.69
2023-03-03T10:32:43.635Z,86.58
2023-03-03T10:35:25.313Z,88.09
2023-03-03T10:37:59.317Z,87.51
2023-03-03T10:40:59.978Z,86.86
2023-03-03T10:43:32.342Z,85.06
2023-03-03T10:46:12.893Z,82.72
2023-03-03T10:48:56.486Z,83.04
2023-03-03T10:51:33.248Z,82.69
2023-03-03T10:54:05.323Z,82.94
2023-03-03T10:57:08.489Z,83.23
2023-03-03T11:00:07.935Z,80.68
2023-03-03T11:02:44.691Z,81.53
2023-03-03T11:05:36.188Z,82.28
2023-03-03T11:08:16.630Z,80.60
2023-03-03T11:10:52.866Z,80.60
2023-03-03T11:13:41.289Z,79.30
2023-03-03T11:16:20.194Z,78.10
2023-03-03T11:19:07.298Z,79.03
2023-03-03T11:21:57.427Z,80.61
2023-03-03T11:24:46.523Z,77.21
2023-03-03T11:27:51.631Z,75.99
2023-03-03T11:30:25.540Z,74.03
2023-03-03T11:33:01.555Z,76.64
2023-03-03T11:35:34.238Z,73.81
2023-03-03T11:38:12.061Z,73.63
2023-03-03T11:40:49.012Z,74.74
2023-03-03T11:43:37.477Z,74.69
2023-03-03T11:46:11.574Z,72.63
2023-03-03T11:48:59.984Z,73.07
2023-03-03T11:51:45.890Z,72.24
2023-03-03T11:54:51.302Z,70.61
2023-03-03T11:57:36.797Z,70.55
2023-03-03T12:00:25.419Z,68.05
2023-03-03T12:03:02.662Z,68.90
2023-03-03T12:05:57.267Z,71.12
2023-03-03T12:08:37.245Z,70.23
2023-03-03T12:11:08.183Z,65.52
2023-03-03T12:13:39.576Z,65.42
2023-03-03T12:16:10.454Z,64.46
2023-03-03T12:18:44.285Z,64.20
2023-03-03T12:21:25.042Z,64.18
2023-03-03T12:24:15.952Z,63.54
2023-03-03T12:27:01.294Z,65.33
2023-03-03T12:29:52.467Z,66.69
2023-03-03T12:32:49.490Z,66.25
2023-03-03T12:35:36.252Z,65.77
2023-03-03T12:38:29.058Z,67.76
2023-03-03T12:41:35.938Z,69.16
2023-03-03T12:44:18.943Z,69.33
2023-03-03T12:47:11.353Z,69.81
2023-03-03T12:50:16.838Z,69.59
2023-03-03T12:53:09.828Z,70.39
2023-03-03T12:55:37.853Z,70.89
2023-03-03T12:58:18.331Z,71.96
2023-03-03T13:00:56.151Z,71.92
2023-03-03T13:03:55.009Z,70.38
2023-03-03T13:06:31.329Z,73.13
2023-03-03T13:09:12.891Z,72.43
2023-03-03T13:12:11.814Z,72.35
2023-03-03T13:14:45.107Z,73.17
2023-03-03T13:17:31.113Z,73.25
2023-03-03T13:20:03.256Z,72.99
2023-03-03T13:22:56.743Z,74.52
2023-03-03T13:25:50.002Z,75.50
2023-03-03T13:28:32.889Z,75.63
2023-03-03T13:31:18.449Z,75.85
2023-03-03T13:33:57.847Z,76.08
2023-03-03T13:36:32.701Z,75.84
2023-03-03T13:39:04.273Z,77.03
2023-03-03T13:41:41.453Z,76.18
2023-03-03T13:44:23.772Z,76.54
2023-03-03T13:47:04.431Z,77.40
2023-03-03T13:49:57.368Z,76.70
2023-03-03T13:52:27.824Z,76.30
2023-03-03T13:55:26.131Z,76.88
2023-03-03T13:58:26.816Z,76.97
2023-03-03T14:01:23.915Z,76.69
2023-03-03T14:04:03.817Z,76.94
2023-03-03T14:06:32.357Z,77.29
2023-03-03T14:09:52.595Z,77.16
2023-03-03T14:12:26.684Z,77.72
2023-03-03T14:15:05.723Z,77.38
2023-03-03T14:17:50.750Z,76.23
2023-03-03T14:20:35.826Z,77.76
2023-03-03T14:23:29.145Z,76.66
2023-03-03T14:26:06.262Z,77.43
2023-03-03T14:28:48.409Z,78.10
2023-03-03T14:31:19.789Z,78.27
2023-03-03T14:34:26.090Z,78.94
2023-03-03T14:36:58.830Z,78.87
2023-03-03T14:39:36.466Z,78.55
2023-03-03T14:42:12.163Z,78.19
2023-03-03T14:44:56.117Z,79.77
2023-03-03T14:47:28.733Z,79.75
2023-03-03T14:50:01.242Z,78.77
2023-03-03T14:52:30.410Z,78.46
2023-03-03T14:55:00.972Z,77.78
2023-03-03T14:57:55.676Z,77.83
2023-03-03T15:00:23.404Z,77.84
2023-03-03T15:02:54.211Z,77.33
2023-03-03T15:05:29.061Z,77.77
2023-03-03T15:08:06.675Z,78.21
2023-03-03T15:10:41.813Z,78.98
2023-03-03T15:13:22.047Z,79.04
2023-03-03T15:16:06.054Z,78.05
2023-03-03T15:18:36.995Z,77.31
2023-03-03T15:21:06.711Z,78.32
2023-03-03T15:23:59.190Z,77.42
2023-03-03T15:26:47.533Z,77.59
2023-03-03T15:29:27.993Z,78.07
2023-03-03T15:32:18.133Z,78.11
2023-03-03T15:35:01.057Z,77.64
2023-03-03T15:37:59.735Z,78.07
2023-03-03T15:40:30.553Z,77.33
2023-03-03T15:43:23.266Z,78.25
2023-03-03T15:46:03.246Z,77.92
2023-03-03T15:48:31.026Z,78.41
2023-03-03T15:51:07.426Z,77.27
2023-03-03T15:53:57.806Z,78.37
2023-03-03T15:56:49.644Z,78.67
2023-03-03T15:59:31.462Z,78.77
2023-03-03T16:02:13.047Z,78.77
2023-03-03T16:04:46.369Z,78.21
2023-03-03T16:07:35.713Z,78.13
2023-03-03T16:10:35.847Z,79.24
2023-03-03T16:13:22.629Z,79.11
2023-03-03T16:16:19.503Z,79.87
2023-03-03T16:19:18.767Z,80.40
2023-03-03T16:22:06.293Z,80.23
2023-03-03T16:24:48.995Z,80.08
2023-03-03T16:27:36.875Z,79.59
2023-03-03T16:30:28.102Z,79.44
2023-03-03T16:33:26.586Z,80.78
2023-03-03T16:36:22.793Z,80.63
2023-03-03T16:38:54.549Z,79.69
2023-03-03T16:42:04.418Z,81.16
2023-03-03T16:44:54.908Z,82.22
2023-03-03T16:47:50.488Z,83.03
2023-03-03T16:50:39.597Z,81.31
2023-03-03T16:53:48.909Z,82.31
2023-03-03T16:56:33.569Z,80.69
2023-03-03T16:59:29.701Z,81.83
2023-03-03T17:02:28.061Z,82.09
2023-03-03T17:05:07.548Z,81.32
2023-03-03T17:07:51.573Z,83.13
2023-03-03T17:10:25.373Z,82.89
2023-03-03T17:13:17.057Z,83.41
2023-03-03T17:15:50.935Z,83.63
2023-03-03T17:18:38.698Z,83.70
2023-03-03T17:21:21.804Z,84.71
2023-03-03T17:24:10.505Z,84.54
2023-03-03T17:27:08.932Z,85.31
2023-03-03T17:29:41.075Z,85.47
2023-03-03T17:32:19.055Z,85.95
2023-03-03T17:34:55.638Z,86.78
2023-03-03T17:37:35.619Z,87.61
2023-03-03T17:40:18.834Z,87.64
2023-03-03T17:43:04.993Z,88.11
2023-03-03T17:45:36.364Z,93.01
2023-03-03T17:48:22.180Z,88.34
2023-03-03T17:51:06.106Z,89.08
2023-03-03T17:53:44.754Z,89.72
2023-03-03T17:56:31.326Z,87.96
2023-03-03T17:59:21.063Z,89.27
2023-03-03T18:02:19.668Z,87.05
2023-03-03T18:05:09.263Z,86.79
2023-03-03T18:07:58.195Z,87.52
2023-03-03T18:10:44.851Z,88.25
2023-03-03T18:13:27.948Z,87.87
2023-03-03T18:16:33.929Z,86.43
2023-03-03T18:19:22.461Z,88.14
2023-03-03T18:21:50.160Z,87.34
2023-03-03T18:24:26.782Z,87.89
2023-03-03T18:26:56.417Z,86.14
2023-03-03T18:29:29.173Z,86.21
2023-03-03T18:31:59.913Z,86.22
2023-03-03T18:34:39.978Z,87.14
2023-03-03T18:37:32.566Z,87.97
2023-03-03T18:40:03.458Z,88.87
2023-03-03T18:42:39.254Z,87.77
2023-03-03T18:45:19.189Z,87.15
2023-03-03T18:48:02.425Z,87.79
2023-03-03T18:50:36.825Z,88.89
2023-03-03T18:53:15.560Z,88.77
2023-03-03T18:55:54.385Z,88.71
2023-03-03T18:58:22.215Z,90.05
2023-03-03T19:00:58.426Z,89.57
2023-03-03T19:03:30.158Z,89.76
2023-03-03T19:06:02.076Z,90.31
2023-03-03T19:08:55.145Z,90.34
2023-03-03T19:11:46.028Z,91.61
2023-03-03T19:14:30.815Z,91.62
2023-03-03T19:17:19.468Z,91.80
2023-03-03T19:20:14.046Z,91.70
2023-03-03T19:23:04.395Z,90.63
2023-03-03T19:25:35.222Z,90.47
2023-03-03T19:28:12.985Z,91.14
2023-03-03T19:30:43.291Z,91.51
2023-03-03T19:33:20.232Z,91.65
2023-03-03T19:36:17.583Z,92.42
2023-03-03T19:39:23.889Z,92.16
2023-03-03T19:42:10.293Z,91.98
2023-03-03T19:44:47.272Z,92.63
2023-03-03T19:47:35.317Z,93.32
2023-03-03T19:50:15.221Z,93.55
2023-03-03T19:52:51.323Z,92.95
2023-03-03T19:55:34.431Z,94.40
2023-03-03T19:58:18.805Z,93.87
2023-03-03T20:00:54.843Z,93.57
2023-03-03T20:03:40.766Z,94.12
2023-03-03T20:06:33.272Z,94.87
2023-03-03T20:09:03.476Z,94.85
2023-03-03T20:12:06.490Z,94.67
2023-03-03T20:14:40.545Z,95.56
2023-03-03T20:17:20.249Z,95.46
2023-03-03T20:19:47.988Z,96.42
2023-03-03T20:22:48.103Z,96.45
2023-03-03T20:25:37.847Z,96.51
2023-03-03T20:28:41.183Z,96.01
2023-03-03T20:31:27.520Z,96.12
2023-03-03T20:34:10.298Z,97.01
2023-03-03T20:36:43.634Z,96.24
2023-03-03T20:39:16.675Z,96.22
2023-03-03T20:41:57.395Z,96.18
2023-03-03T20:45:26.644Z,97.51
2023-03-03T20:48:04.604Z,97.06
2023-03-03T20:50:51.168Z,97.32
2023-03-03T20:53:21.228Z,97.18
2023-03-03T20:55:56.148Z,96.82
2023-03-03T20:58:33.022Z,95.99
2023-03-03T21:01:08.830Z,96.09
2023-03-03T21:03:41.212Z,96.39
2023-03-03T21:06:13.042Z,97.04
2023-03-03T21:08:55.062Z,96.40
2023-03-03T21:11:31.679Z,96.76
2023-03-03T21:14:00.213Z,97.23
2023-03-03T21:16:27.922Z,97.26
2023-03-03T21:19:14.177Z,97.17
2023-03-03T21:21:43.297Z,97.68
2023-03-03T21:24:16.452Z,97.83
2023-03-03T21:26:57.212Z,98.39
2023-03-03T21:29:34.732Z,97.71
2023-03-03T21:32:04.109Z,98.07
2023-03-03T21:34:32.924Z,98.05
2023-03-03T21:37:05.418Z,98.20
2023-03-03T21:39:37.505Z,98.58
2023-03-03T21:42:10.219Z,98.50
2023-03-03T21:44:53.393Z,98.50
2023-03-03T21:47:23.087Z,98.85
2023-03-03T21:49:52.134Z,98.61
2023-03-03T21:52:21.266Z,98.60
2023-03-03T21:54:50.138Z,98.89
2023-03-03T21:57:18.193Z,99.08
2023-03-03T21:59:45.964Z,99.13
2023-03-03T22:02:13.815Z,99.63
2023-03-03T22:04:42.239Z,99.79
2023-03-03T22:07:10.341Z,100.00
2023-03-03T22:09:38.227Z,99.98
2023-03-03T22:12:06.944Z,100.00
2023-03-03T22:14:34.964Z,99.85
2023-03-03T22:17:03.053Z,99.78
2023-03-03T22:19:30.863Z,100.00
2023-03-03T22:21:58.712Z,100.00
2023-03-03T22:24:26.761Z,100.00
2023-03-03T22:26:54.686Z,100.00
2023-03-03T22:29:24.012Z,100.00
2023-03-03T22:31:52.206Z,100.00
2023-03-03T22:34:20.244Z,100.00
2023-03-03T22:36:48.044Z,100.00
2023-03-03T22:39:15.900Z,100.00
2023-03-03T22:41:43.718Z,100.00
2023-03-03T22:44:11.485Z,100.00
2023-03-03T22:46:39.302Z,100.00
2023-03-03T22:49:07.028Z,100.00
2023-03-03T22:51:34.871Z,100.00
2023-03-03T22:54:02.669Z,100.00
2023-03-03T22:56:30.410Z,100.00
2023-03-03T22:58:58.200Z,100.00
2023-03-03T23:01:25.979Z,100.00
2023-03-03T23:03:53.747Z,100.00
2023-03-03T23:06:21.480Z,100.00
2023-03-03T23:08:49.221Z,100.00
2023-03-03T23:11:16.952Z,100.00
2023-03-03T23:13:44.843Z,100.00
2023-03-03T23:16:12.655Z,100.00
2023-03-03T23:18:40.504Z,100.00
2023-03-03T23:21:08.279Z,100.00
2023-03-03T23:23:36.005Z,100.00
2023-03-03T23:26:04.013Z,100.00
2023-03-03T23:28:31.731Z,100.00
2023-03-03T23:30:59.489Z,100.00
2023-03-03T23:33:27.297Z,100.00
2023-03-03T23:35:55.182Z,100.00
2023-03-03T23:38:22.957Z,100.00
2023-03-03T23:40:50.961Z,100.00
2023-03-03T23:43:18.712Z,100.00
2023-03-03T23:45:46.564Z,100.00
2023-03-03T23:48:14.881Z,100.00
2023-03-03T23:50:42.680Z,100.00
2023-03-03T23:53:10.497Z,100.00
2023-03-03T23:55:38.665Z,100.00
2023-03-03T23:58:06.591Z,100.00
